sensor_id;sensor_type;location;lat;lon;timestamp;pressure;altitude;pressure_sealevel;temperature
73894;BMP280;62699;50.534;12.784;2023-12-28T00:03:16;96191.59;;;6.16
73894;BMP280;62699;50.534;12.784;2023-12-28T00:08:16;96197.88;;;6.28
73894;BMP280;62699;50.534;12.784;2023-12-28T00:13:17;96183.09;;;6.32
73894;BMP280;62699;50.534;12.784;2023-12-28T00:18:17;96165.63;;;6.51
73894;BMP280;62699;50.534;12.784;2023-12-28T00:23:17;96182.47;;;6.57
73894;BMP280;62699;50.534;12.784;2023-12-28T00:28:20;96160.25;;;6.51
73894;BMP280;62699;50.534;12.784;2023-12-28T00:33:20;96145.44;;;6.50
73894;BMP280;62699;50.534;12.784;2023-12-28T00:38:20;96150.78;;;6.50
73894;BMP280;62699;50.534;12.784;2023-12-28T00:43:20;96166.28;;;6.46
73894;BMP280;62699;50.534;12.784;2023-12-28T00:48:21;96164.06;;;6.45
73894;BMP280;62699;50.534;12.784;2023-12-28T00:53:21;96147.84;;;6.48
73894;BMP280;62699;50.534;12.784;2023-12-28T00:58:21;96116.69;;;6.65
73894;BMP280;62699;50.534;12.784;2023-12-28T01:03:21;96125.91;;;6.85
73894;BMP280;62699;50.534;12.784;2023-12-28T01:08:21;96124.34;;;6.98
73894;BMP280;62699;50.534;12.784;2023-12-28T01:13:22;96149.75;;;7.08
73894;BMP280;62699;50.534;12.784;2023-12-28T01:18:22;96159.31;;;7.15
73894;BMP280;62699;50.534;12.784;2023-12-28T01:23:22;96151.34;;;7.21
73894;BMP280;62699;50.534;12.784;2023-12-28T01:28:22;96136.25;;;7.18
73894;BMP280;62699;50.534;12.784;2023-12-28T01:33:23;96137.16;;;6.89
73894;BMP280;62699;50.534;12.784;2023-12-28T01:38:23;96158.69;;;6.80
73894;BMP280;62699;50.534;12.784;2023-12-28T01:43:23;96160.81;;;6.55
73894;BMP280;62699;50.534;12.784;2023-12-28T01:48:24;96150.06;;;6.90
73894;BMP280;62699;50.534;12.784;2023-12-28T01:53:24;96137.94;;;6.75
73894;BMP280;62699;50.534;12.784;2023-12-28T01:58:26;96133.69;;;7.08
73894;BMP280;62699;50.534;12.784;2023-12-28T02:03:27;96127.84;;;6.84
73894;BMP280;62699;50.534;12.784;2023-12-28T02:08:27;96122.56;;;6.90
73894;BMP280;62699;50.534;12.784;2023-12-28T02:13:28;96123.16;;;6.39
73894;BMP280;62699;50.534;12.784;2023-12-28T02:18:34;96120.06;;;6.25
73894;BMP280;62699;50.534;12.784;2023-12-28T02:23:38;96122.28;;;6.47
73894;BMP280;62699;50.534;12.784;2023-12-28T02:28:38;96119.00;;;6.03
73894;BMP280;62699;50.534;12.784;2023-12-28T02:33:49;96136.56;;;5.89
73894;BMP280;62699;50.534;12.784;2023-12-28T02:38:51;96141.34;;;5.70
73894;BMP280;62699;50.534;12.784;2023-12-28T02:43:52;96145.22;;;5.55
73894;BMP280;62699;50.534;12.784;2023-12-28T02:48:53;96119.25;;;5.70
73894;BMP280;62699;50.534;12.784;2023-12-28T02:53:57;96109.50;;;5.52
73894;BMP280;62699;50.534;12.784;2023-12-28T02:58:57;96123.75;;;5.34
73894;BMP280;62699;50.534;12.784;2023-12-28T03:03:57;96103.03;;;5.73
73894;BMP280;62699;50.534;12.784;2023-12-28T03:08:57;96094.41;;;5.49
73894;BMP280;62699;50.534;12.784;2023-12-28T03:13:58;96084.47;;;5.35
73894;BMP280;62699;50.534;12.784;2023-12-28T03:18:58;96105.09;;;5.49
73894;BMP280;62699;50.534;12.784;2023-12-28T03:23:58;96136.38;;;5.49
73894;BMP280;62699;50.534;12.784;2023-12-28T03:28:59;96141.88;;;5.60
73894;BMP280;62699;50.534;12.784;2023-12-28T03:33:59;96145.50;;;5.71
73894;BMP280;62699;50.534;12.784;2023-12-28T03:38:59;96152.03;;;5.56
73894;BMP280;62699;50.534;12.784;2023-12-28T03:44:00;96171.25;;;5.45
73894;BMP280;62699;50.534;12.784;2023-12-28T03:49:00;96165.94;;;5.74
73894;BMP280;62699;50.534;12.784;2023-12-28T03:54:00;96144.47;;;5.83
73894;BMP280;62699;50.534;12.784;2023-12-28T03:59:01;96143.03;;;6.17
73894;BMP280;62699;50.534;12.784;2023-12-28T04:04:01;96178.50;;;6.18
73894;BMP280;62699;50.534;12.784;2023-12-28T04:09:02;96179.66;;;6.46
73894;BMP280;62699;50.534;12.784;2023-12-28T04:14:02;96171.34;;;7.25
73894;BMP280;62699;50.534;12.784;2023-12-28T04:19:02;96156.72;;;7.21
73894;BMP280;62699;50.534;12.784;2023-12-28T04:24:03;96172.13;;;7.05
73894;BMP280;62699;50.534;12.784;2023-12-28T04:29:03;96174.72;;;7.20
73894;BMP280;62699;50.534;12.784;2023-12-28T04:34:04;96168.78;;;7.11
73894;BMP280;62699;50.534;12.784;2023-12-28T04:39:04;96146.88;;;7.12
73894;BMP280;62699;50.534;12.784;2023-12-28T04:44:04;96115.81;;;7.20
73894;BMP280;62699;50.534;12.784;2023-12-28T04:49:05;96119.56;;;7.28
73894;BMP280;62699;50.534;12.784;2023-12-28T04:54:05;96125.63;;;7.03
73894;BMP280;62699;50.534;12.784;2023-12-28T04:59:05;96132.91;;;7.02
73894;BMP280;62699;50.534;12.784;2023-12-28T05:04:05;96133.63;;;7.03
73894;BMP280;62699;50.534;12.784;2023-12-28T05:09:05;96140.69;;;7.00
73894;BMP280;62699;50.534;12.784;2023-12-28T05:14:06;96141.34;;;6.95
73894;BMP280;62699;50.534;12.784;2023-12-28T05:19:06;96144.00;;;7.16
73894;BMP280;62699;50.534;12.784;2023-12-28T05:24:07;96127.03;;;7.24
73894;BMP280;62699;50.534;12.784;2023-12-28T05:29:07;96138.03;;;7.26
73894;BMP280;62699;50.534;12.784;2023-12-28T05:34:08;96148.94;;;7.48
73894;BMP280;62699;50.534;12.784;2023-12-28T05:39:08;96142.56;;;7.72
73894;BMP280;62699;50.534;12.784;2023-12-28T05:44:09;96144.19;;;7.64
73894;BMP280;62699;50.534;12.784;2023-12-28T05:49:09;96149.47;;;7.84
73894;BMP280;62699;50.534;12.784;2023-12-28T05:54:10;96159.63;;;7.74
73894;BMP280;62699;50.534;12.784;2023-12-28T05:59:10;96162.06;;;7.72
73894;BMP280;62699;50.534;12.784;2023-12-28T06:04:10;96176.09;;;7.62
73894;BMP280;62699;50.534;12.784;2023-12-28T06:09:11;96181.84;;;7.55
73894;BMP280;62699;50.534;12.784;2023-12-28T06:14:12;96198.41;;;7.79
73894;BMP280;62699;50.534;12.784;2023-12-28T06:19:12;96207.13;;;7.74
73894;BMP280;62699;50.534;12.784;2023-12-28T06:24:12;96212.13;;;7.61
73894;BMP280;62699;50.534;12.784;2023-12-28T06:29:12;96199.34;;;7.76
73894;BMP280;62699;50.534;12.784;2023-12-28T06:34:13;96199.34;;;7.76
73894;BMP280;62699;50.534;12.784;2023-12-28T06:39:13;96219.00;;;7.93
73894;BMP280;62699;50.534;12.784;2023-12-28T06:44:14;96218.34;;;7.78
73894;BMP280;62699;50.534;12.784;2023-12-28T06:49:14;96194.00;;;7.76
73894;BMP280;62699;50.534;12.784;2023-12-28T06:54:15;96199.47;;;7.61
73894;BMP280;62699;50.534;12.784;2023-12-28T06:59:16;96168.81;;;7.62
73894;BMP280;62699;50.534;12.784;2023-12-28T07:04:16;96192.00;;;7.71
73894;BMP280;62699;50.534;12.784;2023-12-28T07:09:17;96202.41;;;7.63
73894;BMP280;62699;50.534;12.784;2023-12-28T07:14:18;96192.00;;;7.45
73894;BMP280;62699;50.534;12.784;2023-12-28T07:19:18;96194.97;;;7.27
73894;BMP280;62699;50.534;12.784;2023-12-28T07:24:18;96207.00;;;7.11
73894;BMP280;62699;50.534;12.784;2023-12-28T07:29:18;96198.56;;;6.98
73894;BMP280;62699;50.534;12.784;2023-12-28T07:34:19;96223.50;;;6.89
73894;BMP280;62699;50.534;12.784;2023-12-28T07:39:19;96227.56;;;6.85
73894;BMP280;62699;50.534;12.784;2023-12-28T07:44:19;96235.31;;;6.83
73894;BMP280;62699;50.534;12.784;2023-12-28T07:49:19;96245.97;;;6.77
73894;BMP280;62699;50.534;12.784;2023-12-28T07:54:20;96245.41;;;6.73
73894;BMP280;62699;50.534;12.784;2023-12-28T07:59:20;96235.16;;;7.06
73894;BMP280;62699;50.534;12.784;2023-12-28T08:04:21;96231.50;;;7.50
73894;BMP280;62699;50.534;12.784;2023-12-28T08:09:21;96238.22;;;7.66
73894;BMP280;62699;50.534;12.784;2023-12-28T08:14:21;96247.72;;;7.67
73894;BMP280;62699;50.534;12.784;2023-12-28T08:19:21;96240.03;;;7.74
73894;BMP280;62699;50.534;12.784;2023-12-28T08:24:22;96230.78;;;7.75
73894;BMP280;62699;50.534;12.784;2023-12-28T08:29:22;96224.03;;;7.85
73894;BMP280;62699;50.534;12.784;2023-12-28T08:34:22;96224.09;;;7.91
73894;BMP280;62699;50.534;12.784;2023-12-28T08:39:22;96226.91;;;8.08
73894;BMP280;62699;50.534;12.784;2023-12-28T08:44:23;96244.75;;;8.16
73894;BMP280;62699;50.534;12.784;2023-12-28T08:49:23;96254.78;;;8.21
73894;BMP280;62699;50.534;12.784;2023-12-28T08:54:23;96268.25;;;8.27
73894;BMP280;62699;50.534;12.784;2023-12-28T08:59:23;96283.88;;;8.34
73894;BMP280;62699;50.534;12.784;2023-12-28T09:04:23;96295.91;;;8.39
73894;BMP280;62699;50.534;12.784;2023-12-28T09:09:24;96308.91;;;8.51
73894;BMP280;62699;50.534;12.784;2023-12-28T09:14:27;96314.22;;;8.46
73894;BMP280;62699;50.534;12.784;2023-12-28T09:19:27;96315.00;;;8.52
73894;BMP280;62699;50.534;12.784;2023-12-28T09:24:27;96308.00;;;8.60
73894;BMP280;62699;50.534;12.784;2023-12-28T09:29:27;96297.06;;;8.69
73894;BMP280;62699;50.534;12.784;2023-12-28T09:34:27;96293.19;;;8.70
73894;BMP280;62699;50.534;12.784;2023-12-28T09:39:28;96279.22;;;8.60
73894;BMP280;62699;50.534;12.784;2023-12-28T09:44:29;96271.38;;;8.57
73894;BMP280;62699;50.534;12.784;2023-12-28T09:49:30;96277.19;;;8.50
73894;BMP280;62699;50.534;12.784;2023-12-28T09:54:30;96279.81;;;8.39
73894;BMP280;62699;50.534;12.784;2023-12-28T09:59:32;96278.31;;;8.38
73894;BMP280;62699;50.534;12.784;2023-12-28T10:04:32;96268.03;;;8.30
73894;BMP280;62699;50.534;12.784;2023-12-28T10:09:33;96250.72;;;8.31
73894;BMP280;62699;50.534;12.784;2023-12-28T10:14:33;96266.34;;;8.33
73894;BMP280;62699;50.534;12.784;2023-12-28T10:19:34;96270.47;;;8.28
73894;BMP280;62699;50.534;12.784;2023-12-28T10:24:42;96278.75;;;8.30
73894;BMP280;62699;50.534;12.784;2023-12-28T10:29:42;96277.31;;;8.29
73894;BMP280;62699;50.534;12.784;2023-12-28T10:34:43;96267.78;;;8.28
73894;BMP280;62699;50.534;12.784;2023-12-28T10:39:46;96261.22;;;8.29
73894;BMP280;62699;50.534;12.784;2023-12-28T10:44:49;96258.78;;;8.31
73894;BMP280;62699;50.534;12.784;2023-12-28T10:49:54;96253.91;;;8.35
73894;BMP280;62699;50.534;12.784;2023-12-28T10:55:23;96248.13;;;8.43
73894;BMP280;62699;50.534;12.784;2023-12-28T11:00:30;96257.38;;;8.42
73894;BMP280;62699;50.534;12.784;2023-12-28T11:05:32;96261.78;;;8.45
73894;BMP280;62699;50.534;12.784;2023-12-28T11:10:33;96250.09;;;8.48
73894;BMP280;62699;50.534;12.784;2023-12-28T11:15:35;96252.59;;;8.57
73894;BMP280;62699;50.534;12.784;2023-12-28T11:20:37;96260.91;;;8.64
73894;BMP280;62699;50.534;12.784;2023-12-28T11:25:37;96247.25;;;8.62
73894;BMP280;62699;50.534;12.784;2023-12-28T11:30:38;96246.31;;;8.71
73894;BMP280;62699;50.534;12.784;2023-12-28T11:35:39;96239.25;;;8.68
73894;BMP280;62699;50.534;12.784;2023-12-28T11:40:46;96240.97;;;8.71
73894;BMP280;62699;50.534;12.784;2023-12-28T11:45:51;96245.13;;;8.72
73894;BMP280;62699;50.534;12.784;2023-12-28T11:50:54;96249.28;;;8.73
73894;BMP280;62699;50.534;12.784;2023-12-28T11:56:01;96250.28;;;8.81
73894;BMP280;62699;50.534;12.784;2023-12-28T12:01:03;96242.22;;;8.81
73894;BMP280;62699;50.534;12.784;2023-12-28T12:06:03;96232.75;;;8.86
73894;BMP280;62699;50.534;12.784;2023-12-28T12:11:05;96242.25;;;8.87
73894;BMP280;62699;50.534;12.784;2023-12-28T12:16:06;96243.00;;;8.87
73894;BMP280;62699;50.534;12.784;2023-12-28T12:21:06;96234.19;;;8.81
73894;BMP280;62699;50.534;12.784;2023-12-28T12:26:07;96242.22;;;8.81
73894;BMP280;62699;50.534;12.784;2023-12-28T12:31:08;96233.41;;;8.69
73894;BMP280;62699;50.534;12.784;2023-12-28T12:36:08;96230.69;;;8.64
73894;BMP280;62699;50.534;12.784;2023-12-28T12:41:10;96230.44;;;8.62
73894;BMP280;62699;50.534;12.784;2023-12-28T12:46:12;96223.34;;;8.59
73894;BMP280;62699;50.534;12.784;2023-12-28T12:51:12;96223.28;;;8.48
73894;BMP280;62699;50.534;12.784;2023-12-28T12:56:12;96226.38;;;8.41
73894;BMP280;62699;50.534;12.784;2023-12-28T13:01:13;96226.59;;;8.31
73894;BMP280;62699;50.534;12.784;2023-12-28T13:06:14;96222.84;;;8.18
73894;BMP280;62699;50.534;12.784;2023-12-28T13:11:14;96232.47;;;8.04
73894;BMP280;62699;50.534;12.784;2023-12-28T13:16:15;96232.81;;;8.17
73894;BMP280;62699;50.534;12.784;2023-12-28T13:21:16;96229.28;;;8.00
73894;BMP280;62699;50.534;12.784;2023-12-28T13:26:16;96215.03;;;7.83
73894;BMP280;62699;50.534;12.784;2023-12-28T13:31:17;96215.56;;;7.61
73894;BMP280;62699;50.534;12.784;2023-12-28T13:36:18;96214.81;;;7.61
73894;BMP280;62699;50.534;12.784;2023-12-28T13:41:18;96210.53;;;7.74
73894;BMP280;62699;50.534;12.784;2023-12-28T13:46:19;96206.25;;;7.82
73894;BMP280;62699;50.534;12.784;2023-12-28T13:51:19;96199.88;;;7.80
73894;BMP280;62699;50.534;12.784;2023-12-28T13:56:19;96201.53;;;7.72
73894;BMP280;62699;50.534;12.784;2023-12-28T14:01:19;96201.16;;;7.90
73894;BMP280;62699;50.534;12.784;2023-12-28T14:06:20;96199.06;;;8.00
73894;BMP280;62699;50.534;12.784;2023-12-28T14:11:20;96203.16;;;7.95
73894;BMP280;62699;50.534;12.784;2023-12-28T14:16:20;96207.13;;;7.74
73894;BMP280;62699;50.534;12.784;2023-12-28T14:21:20;96211.19;;;7.64
73894;BMP280;62699;50.534;12.784;2023-12-28T14:26:21;96209.53;;;7.46
73894;BMP280;62699;50.534;12.784;2023-12-28T14:31:22;96195.84;;;7.38
73894;BMP280;62699;50.534;12.784;2023-12-28T14:36:33;96196.88;;;7.46
73894;BMP280;62699;50.534;12.784;2023-12-28T14:41:34;96193.44;;;7.40
73894;BMP280;62699;50.534;12.784;2023-12-28T14:46:35;96191.56;;;7.26
73894;BMP280;62699;50.534;12.784;2023-12-28T14:51:35;96187.69;;;7.27
73894;BMP280;62699;50.534;12.784;2023-12-28T14:56:36;96183.94;;;7.19
73894;BMP280;62699;50.534;12.784;2023-12-28T15:01:36;96176.00;;;7.04
73894;BMP280;62699;50.534;12.784;2023-12-28T15:06:36;96170.31;;;6.77
73894;BMP280;62699;50.534;12.784;2023-12-28T15:11:37;96160.97;;;6.66
73894;BMP280;62699;50.534;12.784;2023-12-28T15:16:38;96145.31;;;6.39
73894;BMP280;62699;50.534;12.784;2023-12-28T15:21:39;96173.69;;;6.37
73894;BMP280;62699;50.534;12.784;2023-12-28T15:26:39;96169.09;;;6.57
73894;BMP280;62699;50.534;12.784;2023-12-28T15:31:39;96169.38;;;6.39
73894;BMP280;62699;50.534;12.784;2023-12-28T15:36:40;96165.06;;;6.27
73894;BMP280;62699;50.534;12.784;2023-12-28T15:41:40;96168.53;;;6.33
73894;BMP280;62699;50.534;12.784;2023-12-28T15:46:41;96155.66;;;6.17
73894;BMP280;62699;50.534;12.784;2023-12-28T15:51:44;96156.97;;;6.07
73894;BMP280;62699;50.534;12.784;2023-12-28T15:56:45;96168.78;;;6.00
73894;BMP280;62699;50.534;12.784;2023-12-28T16:01:45;96153.41;;;5.80
73894;BMP280;62699;50.534;12.784;2023-12-28T16:06:45;96151.66;;;5.63
73894;BMP280;62699;50.534;12.784;2023-12-28T16:11:45;96156.81;;;5.66
73894;BMP280;62699;50.534;12.784;2023-12-28T16:16:46;96156.81;;;5.66
73894;BMP280;62699;50.534;12.784;2023-12-28T16:21:46;96154.34;;;5.77
73894;BMP280;62699;50.534;12.784;2023-12-28T16:26:48;96163.34;;;5.80
73894;BMP280;62699;50.534;12.784;2023-12-28T16:31:48;96158.38;;;5.73
73894;BMP280;62699;50.534;12.784;2023-12-28T16:36:48;96160.13;;;5.76
73894;BMP280;62699;50.534;12.784;2023-12-28T16:41:48;96160.84;;;5.91
73894;BMP280;62699;50.534;12.784;2023-12-28T16:46:49;96149.38;;;5.85
73894;BMP280;62699;50.534;12.784;2023-12-28T16:51:50;96140.22;;;5.92
73894;BMP280;62699;50.534;12.784;2023-12-28T16:56:50;96136.50;;;6.04
73894;BMP280;62699;50.534;12.784;2023-12-28T17:01:50;96120.09;;;6.11
73894;BMP280;62699;50.534;12.784;2023-12-28T17:06:51;96128.69;;;6.35
73894;BMP280;62699;50.534;12.784;2023-12-28T17:12:02;96124.06;;;6.50
73894;BMP280;62699;50.534;12.784;2023-12-28T17:17:05;96120.84;;;6.66
73894;BMP280;62699;50.534;12.784;2023-12-28T17:22:07;96138.50;;;6.79
73894;BMP280;62699;50.534;12.784;2023-12-28T17:27:12;96147.97;;;6.59
73894;BMP280;62699;50.534;12.784;2023-12-28T17:32:14;96144.34;;;6.42
73894;BMP280;62699;50.534;12.784;2023-12-28T17:37:14;96139.00;;;6.42
73894;BMP280;62699;50.534;12.784;2023-12-28T17:42:19;96151.56;;;6.36
73894;BMP280;62699;50.534;12.784;2023-12-28T17:47:26;96155.88;;;6.34
73894;BMP280;62699;50.534;12.784;2023-12-28T17:52:31;96153.72;;;6.17
73894;BMP280;62699;50.534;12.784;2023-12-28T17:57:32;96161.28;;;6.19
73894;BMP280;62699;50.534;12.784;2023-12-28T18:02:32;96158.69;;;6.59
73894;BMP280;62699;50.534;12.784;2023-12-28T18:07:32;96148.03;;;6.85
73894;BMP280;62699;50.534;12.784;2023-12-28T18:12:33;96142.13;;;7.22
73894;BMP280;62699;50.534;12.784;2023-12-28T18:17:33;96138.66;;;7.41
73894;BMP280;62699;50.534;12.784;2023-12-28T18:22:33;96144.97;;;7.38
73894;BMP280;62699;50.534;12.784;2023-12-28T18:27:33;96150.84;;;7.42
73894;BMP280;62699;50.534;12.784;2023-12-28T18:32:34;96152.28;;;7.43
73894;BMP280;62699;50.534;12.784;2023-12-28T18:37:34;96142.84;;;7.22
73894;BMP280;62699;50.534;12.784;2023-12-28T18:42:36;96143.09;;;7.24
73894;BMP280;62699;50.534;12.784;2023-12-28T18:47:36;96148.56;;;7.35
73894;BMP280;62699;50.534;12.784;2023-12-28T18:52:37;96148.09;;;7.37
73894;BMP280;62699;50.534;12.784;2023-12-28T18:57:37;96154.97;;;7.18
73894;BMP280;62699;50.534;12.784;2023-12-28T19:02:37;96155.97;;;7.20
73894;BMP280;62699;50.534;12.784;2023-12-28T19:07:37;96169.56;;;7.17
73894;BMP280;62699;50.534;12.784;2023-12-28T19:12:38;96163.16;;;7.08
73894;BMP280;62699;50.534;12.784;2023-12-28T19:17:38;96166.16;;;6.96
73894;BMP280;62699;50.534;12.784;2023-12-28T19:22:41;96172.31;;;7.02
73894;BMP280;62699;50.534;12.784;2023-12-28T19:27:41;96165.75;;;6.83
73894;BMP280;62699;50.534;12.784;2023-12-28T19:32:41;96152.91;;;6.81
73894;BMP280;62699;50.534;12.784;2023-12-28T19:37:42;96150.25;;;6.66
73894;BMP280;62699;50.534;12.784;2023-12-28T19:42:42;96148.38;;;6.52
73894;BMP280;62699;50.534;12.784;2023-12-28T19:47:42;96149.16;;;6.38
73894;BMP280;62699;50.534;12.784;2023-12-28T19:52:42;96142.97;;;6.32
73894;BMP280;62699;50.534;12.784;2023-12-28T19:57:43;96132.25;;;6.47
73894;BMP280;62699;50.534;12.784;2023-12-28T20:02:43;96139.38;;;6.35
73894;BMP280;62699;50.534;12.784;2023-12-28T20:07:43;96122.78;;;6.31
73894;BMP280;62699;50.534;12.784;2023-12-28T20:12:44;96123.69;;;6.63
73894;BMP280;62699;50.534;12.784;2023-12-28T20:17:44;96118.81;;;6.82
73894;BMP280;62699;50.534;12.784;2023-12-28T20:22:46;96112.78;;;6.87
73894;BMP280;62699;50.534;12.784;2023-12-28T20:27:46;96100.78;;;7.02
73894;BMP280;62699;50.534;12.784;2023-12-28T20:32:47;96108.81;;;7.02
73894;BMP280;62699;50.534;12.784;2023-12-28T20:37:47;96099.69;;;6.89
73894;BMP280;62699;50.534;12.784;2023-12-28T20:42:47;96104.31;;;6.88
73894;BMP280;62699;50.534;12.784;2023-12-28T20:47:48;96103.84;;;6.90
73894;BMP280;62699;50.534;12.784;2023-12-28T20:52:48;96117.88;;;6.64
73894;BMP280;62699;50.534;12.784;2023-12-28T20:57:48;96099.03;;;6.53
73894;BMP280;62699;50.534;12.784;2023-12-28T21:02:48;96092.69;;;6.51
73894;BMP280;62699;50.534;12.784;2023-12-28T21:07:49;96081.38;;;6.61
73894;BMP280;62699;50.534;12.784;2023-12-28T21:12:49;96068.94;;;6.79
73894;BMP280;62699;50.534;12.784;2023-12-28T21:18:01;96087.41;;;6.77
73894;BMP280;62699;50.534;12.784;2023-12-28T21:23:01;96091.06;;;6.59
73894;BMP280;62699;50.534;12.784;2023-12-28T21:28:02;96100.09;;;6.82
73894;BMP280;62699;50.534;12.784;2023-12-28T21:33:03;96082.75;;;6.97
73894;BMP280;62699;50.534;12.784;2023-12-28T21:38:04;96094.13;;;6.92
73894;BMP280;62699;50.534;12.784;2023-12-28T21:43:07;96084.25;;;7.04
73894;BMP280;62699;50.534;12.784;2023-12-28T21:48:07;96082.06;;;7.02
73894;BMP280;62699;50.534;12.784;2023-12-28T21:53:08;96078.22;;;7.09
73894;BMP280;62699;50.534;12.784;2023-12-28T21:58:09;96083.75;;;7.00
73894;BMP280;62699;50.534;12.784;2023-12-28T22:03:09;96089.56;;;6.98
73894;BMP280;62699;50.534;12.784;2023-12-28T22:08:09;96113.63;;;7.19
73894;BMP280;62699;50.534;12.784;2023-12-28T22:13:11;96106.94;;;7.08
73894;BMP280;62699;50.534;12.784;2023-12-28T22:18:11;96117.97;;;7.16
73894;BMP280;62699;50.534;12.784;2023-12-28T22:23:11;96120.03;;;7.32
73894;BMP280;62699;50.534;12.784;2023-12-28T22:28:11;96102.78;;;7.33
73894;BMP280;62699;50.534;12.784;2023-12-28T22:33:12;96088.66;;;7.33
73894;BMP280;62699;50.534;12.784;2023-12-28T22:38:12;96084.84;;;7.45
73894;BMP280;62699;50.534;12.784;2023-12-28T22:43:12;96080.78;;;7.55
73894;BMP280;62699;50.534;12.784;2023-12-28T22:48:13;96072.28;;;7.51
73894;BMP280;62699;50.534;12.784;2023-12-28T22:53:16;96072.03;;;7.55
73894;BMP280;62699;50.534;12.784;2023-12-28T22:58:16;96070.63;;;7.59
73894;BMP280;62699;50.534;12.784;2023-12-28T23:03:17;96066.97;;;7.31
73894;BMP280;62699;50.534;12.784;2023-12-28T23:08:17;96067.16;;;7.22
73894;BMP280;62699;50.534;12.784;2023-12-28T23:13:17;96067.47;;;7.29
73894;BMP280;62699;50.534;12.784;2023-12-28T23:18:17;96063.69;;;7.16
73894;BMP280;62699;50.534;12.784;2023-12-28T23:23:18;96060.66;;;7.28
73894;BMP280;62699;50.534;12.784;2023-12-28T23:28:18;96050.03;;;7.39
73894;BMP280;62699;50.534;12.784;2023-12-28T23:33:18;96046.97;;;7.52
73894;BMP280;62699;50.534;12.784;2023-12-28T23:38:18;96048.25;;;7.68
73894;BMP280;62699;50.534;12.784;2023-12-28T23:43:19;96043.81;;;7.59
73894;BMP280;62699;50.534;12.784;2023-12-28T23:48:19;96034.31;;;7.58
73894;BMP280;62699;50.534;12.784;2023-12-28T23:53:19;96052.25;;;7.41
73894;BMP280;62699;50.534;12.784;2023-12-28T23:58:19;96045.72;;;7.53
